N326A KBOS-KCAK
Flight info
| Callsign | N326A |
|---|---|
| Flight time | N/A |
| Altitude | 43000 |
| Route | REVSS6 REVSS CTR HNK J49 PSB SOORD ZZIPS1 |
| Aircraft | C700/M-SBDGHM1RWXY/LB2 |
Departure
| Time | 2026-05-04 23:01 |
|---|---|
| Airport | Boston Logan International Airport (KBOS) |
Arrival
| Time | N/A |
|---|---|
| Airport | Akron Canton Regional Airport (KCAK) |
| Time | Latitude | Longitude | Altitude | Speed | Heading |
|---|---|---|---|---|---|
| 2026-05-04 22:34 | 42.37400 | -71.02076 | 16 ft | 0 kts | 135° |
| 2026-05-04 22:42 | 42.37409 | -71.02089 | 21 ft | 3 kts | 135° |
| 2026-05-04 22:42 | 42.37422 | -71.02107 | 21 ft | 2 kts | 135° |
| 2026-05-04 22:43 | 42.37424 | -71.02107 | 21 ft | 2 kts | 114° |
| 2026-05-04 22:43 | 42.37433 | -71.02091 | 23 ft | 3 kts | 41° |
| 2026-05-04 22:43 | 42.37450 | -71.02076 | 21 ft | 3 kts | 37° |
| 2026-05-04 22:43 | 42.37461 | -71.02055 | 23 ft | 3 kts | 73° |
| 2026-05-04 22:44 | 42.37454 | -71.02033 | 21 ft | 2 kts | 128° |
| 2026-05-04 22:47 | 42.37453 | -71.02031 | 21 ft | 1 kts | 133° |
| 2026-05-04 22:47 | 42.37452 | -71.02030 | 21 ft | 0 kts | 134° |
| 2026-05-04 22:49 | 42.37444 | -71.02019 | 22 ft | 6 kts | 136° |
| 2026-05-04 22:50 | 42.37390 | -71.01945 | 21 ft | 16 kts | 135° |
| 2026-05-04 22:50 | 42.37288 | -71.01809 | 24 ft | 24 kts | 135° |
| 2026-05-04 22:50 | 42.37154 | -71.01631 | 26 ft | 29 kts | 135° |
| 2026-05-04 22:50 | 42.36995 | -71.01417 | 19 ft | 35 kts | 136° |
| 2026-05-04 22:51 | 42.36921 | -71.01240 | 18 ft | 25 kts | 80° |
| 2026-05-04 22:51 | 42.36999 | -71.01102 | 17 ft | 20 kts | 28° |
| 2026-05-04 22:51 | 42.37149 | -71.01003 | 15 ft | 28 kts | 25° |
| 2026-05-04 22:51 | 42.37260 | -71.00933 | 15 ft | 32 kts | 25° |
| 2026-05-04 22:52 | 42.37358 | -71.00880 | 14 ft | 34 kts | 20° |
| 2026-05-04 22:52 | 42.37589 | -71.00766 | 18 ft | 36 kts | 20° |
| 2026-05-04 22:52 | 42.37734 | -71.00696 | 22 ft | 14 kts | 20° |
| 2026-05-04 22:52 | 42.37802 | -71.00663 | 23 ft | 0 kts | 24° |
| 2026-05-04 22:56 | 42.37803 | -71.00662 | 23 ft | 2 kts | 23° |
| 2026-05-04 22:57 | 42.37833 | -71.00634 | 22 ft | 6 kts | 49° |
| 2026-05-04 22:57 | 42.37838 | -71.00577 | 21 ft | 0 kts | 107° |
| 2026-05-04 22:59 | 42.37834 | -71.00559 | 21 ft | 9 kts | 107° |
| 2026-05-04 23:00 | 42.37765 | -71.00485 | 19 ft | 13 kts | 196° |
| 2026-05-04 23:00 | 42.37754 | -71.00490 | 19 ft | 0 kts | 198° |
| 2026-05-04 23:01 | 42.37711 | -71.00511 | 19 ft | 36 kts | 200° |
| 2026-05-04 23:01 | 42.37163 | -71.00782 | 13 ft | 130 kts | 201° |
| 2026-05-04 23:01 | 42.36176 | -71.01246 | 691 ft | 162 kts | 204° |
| 2026-05-04 23:01 | 42.34879 | -71.01454 | 1259 ft | 212 kts | 172° |
| 2026-05-04 23:02 | 42.33541 | -71.00636 | 1799 ft | 214 kts | 152° |
| 2026-05-04 23:02 | 42.32418 | -70.99236 | 2332 ft | 225 kts | 126° |
| 2026-05-04 23:02 | 42.31611 | -70.97370 | 2867 ft | 235 kts | 111° |
| 2026-05-04 23:02 | 42.31311 | -70.95176 | 3406 ft | 249 kts | 88° |
| 2026-05-04 23:03 | 42.31546 | -70.92738 | 3970 ft | 268 kts | 73° |
| 2026-05-04 23:03 | 42.31949 | -70.90225 | 4544 ft | 277 kts | 75° |
| 2026-05-04 23:03 | 42.32312 | -70.87633 | 5010 ft | 287 kts | 76° |
| 2026-05-04 23:03 | 42.32680 | -70.84956 | 5023 ft | 289 kts | 76° |
| 2026-05-04 23:04 | 42.33004 | -70.82349 | 5668 ft | 284 kts | 81° |
| 2026-05-04 23:04 | 42.32840 | -70.79664 | 6448 ft | 291 kts | 99° |
| 2026-05-04 23:04 | 42.32123 | -70.77064 | 7214 ft | 298 kts | 118° |
| 2026-05-04 23:04 | 42.30869 | -70.74815 | 7992 ft | 302 kts | 136° |
| 2026-05-04 23:05 | 42.29176 | -70.73138 | 8813 ft | 303 kts | 154° |
| 2026-05-04 23:05 | 42.27217 | -70.72095 | 9637 ft | 305 kts | 165° |
| 2026-05-04 23:05 | 42.25195 | -70.71202 | 10534 ft | 307 kts | 166° |
| 2026-05-04 23:05 | 42.23101 | -70.70288 | 11556 ft | 320 kts | 166° |
| 2026-05-04 23:06 | 42.20971 | -70.69355 | 12600 ft | 331 kts | 166° |
| 2026-05-04 23:06 | 42.18669 | -70.68658 | 13673 ft | 340 kts | 184° |
| 2026-05-04 23:06 | 42.16274 | -70.69281 | 14055 ft | 369 kts | 208° |
| 2026-05-04 23:06 | 42.14237 | -70.71232 | 14109 ft | 357 kts | 236° |
| 2026-05-04 23:07 | 42.13301 | -70.74109 | 15527 ft | 315 kts | 269° |
| 2026-05-04 23:07 | 42.13634 | -70.76824 | 17729 ft | 295 kts | 292° |
| 2026-05-04 23:07 | 42.14368 | -70.79467 | 18731 ft | 308 kts | 287° |
| 2026-05-04 23:07 | 42.14836 | -70.82304 | 19779 ft | 312 kts | 284° |
| 2026-05-04 23:08 | 42.15305 | -70.85183 | 20711 ft | 317 kts | 286° |
| 2026-05-04 23:08 | 42.15919 | -70.88047 | 21640 ft | 320 kts | 289° |
| 2026-05-04 23:08 | 42.16559 | -70.90944 | 22572 ft | 325 kts | 288° |
| 2026-05-04 23:08 | 42.17157 | -70.93909 | 23467 ft | 330 kts | 287° |
| 2026-05-04 23:09 | 42.17753 | -70.96919 | 24205 ft | 335 kts | 287° |
| 2026-05-04 23:09 | 42.18376 | -70.99971 | 24935 ft | 340 kts | 287° |
| 2026-05-04 23:09 | 42.19011 | -71.03063 | 25671 ft | 345 kts | 287° |
| 2026-05-04 23:09 | 42.19650 | -71.06211 | 26404 ft | 350 kts | 286° |
| 2026-05-04 23:10 | 42.20294 | -71.09402 | 27141 ft | 356 kts | 286° |
| 2026-05-04 23:10 | 42.20952 | -71.12652 | 27865 ft | 361 kts | 286° |
| 2026-05-04 23:10 | 42.21617 | -71.15939 | 28590 ft | 366 kts | 286° |
| 2026-05-04 23:10 | 42.22289 | -71.19275 | 29313 ft | 371 kts | 285° |
| 2026-05-04 23:11 | 42.22971 | -71.22664 | 29998 ft | 377 kts | 285° |
| 2026-05-04 23:11 | 42.23664 | -71.26108 | 30580 ft | 382 kts | 285° |
| 2026-05-04 23:11 | 42.24362 | -71.29584 | 31162 ft | 387 kts | 285° |
| 2026-05-04 23:11 | 42.25071 | -71.33125 | 31720 ft | 393 kts | 285° |
| 2026-05-04 23:12 | 42.25787 | -71.36707 | 32274 ft | 398 kts | 285° |
| 2026-05-04 23:12 | 42.26513 | -71.40345 | 32825 ft | 404 kts | 285° |
| 2026-05-04 23:12 | 42.27245 | -71.44017 | 33507 ft | 405 kts | 284° |
| 2026-05-04 23:12 | 42.27975 | -71.47683 | 34178 ft | 405 kts | 284° |
| 2026-05-04 23:13 | 42.28705 | -71.51368 | 34805 ft | 406 kts | 284° |
| 2026-05-04 23:13 | 42.29433 | -71.55040 | 35435 ft | 405 kts | 284° |
| 2026-05-04 23:13 | 42.30162 | -71.58724 | 36070 ft | 405 kts | 283° |
| 2026-05-04 23:13 | 42.30889 | -71.62412 | 36651 ft | 406 kts | 283° |
| 2026-05-04 23:14 | 42.31615 | -71.66091 | 37237 ft | 406 kts | 283° |
| 2026-05-04 23:14 | 42.32331 | -71.69729 | 37791 ft | 406 kts | 283° |
| 2026-05-04 23:14 | 42.33055 | -71.73418 | 38351 ft | 406 kts | 283° |
| 2026-05-04 23:14 | 42.33774 | -71.77100 | 38795 ft | 406 kts | 282° |
| 2026-05-04 23:15 | 42.34263 | -71.80849 | 39203 ft | 404 kts | 274° |
| 2026-05-04 23:15 | 42.34382 | -71.84631 | 39577 ft | 403 kts | 268° |
| 2026-05-04 23:15 | 42.34219 | -71.88414 | 39954 ft | 403 kts | 266° |
| 2026-05-04 23:15 | 42.34057 | -71.92194 | 40308 ft | 403 kts | 266° |
| 2026-05-04 23:16 | 42.33903 | -71.95981 | 40639 ft | 403 kts | 266° |
| 2026-05-04 23:16 | 42.33735 | -71.99772 | 40960 ft | 403 kts | 265° |
| 2026-05-04 23:16 | 42.33562 | -72.03554 | 41284 ft | 403 kts | 265° |
| 2026-05-04 23:16 | 42.33393 | -72.07345 | 41607 ft | 403 kts | 266° |
| 2026-05-04 23:17 | 42.33226 | -72.11125 | 41914 ft | 403 kts | 265° |
| 2026-05-04 23:17 | 42.33054 | -72.14912 | 42224 ft | 403 kts | 265° |
| 2026-05-04 23:17 | 42.32880 | -72.18689 | 42524 ft | 403 kts | 265° |
| 2026-05-04 23:17 | 42.32707 | -72.22468 | 42807 ft | 403 kts | 265° |
| 2026-05-04 23:18 | 42.32350 | -72.30137 | 42815 ft | 416 kts | 265° |
| 2026-05-04 23:18 | 42.31977 | -72.38043 | 42817 ft | 427 kts | 265° |
| 2026-05-04 23:19 | 42.31588 | -72.46169 | 42822 ft | 439 kts | 265° |
| 2026-05-04 23:19 | 42.31185 | -72.54492 | 42822 ft | 448 kts | 265° |
| 2026-05-04 23:20 | 42.30769 | -72.62907 | 42820 ft | 449 kts | 265° |
| 2026-05-04 23:20 | 42.30348 | -72.71334 | 42836 ft | 450 kts | 265° |
| 2026-05-04 23:21 | 42.29922 | -72.79707 | 42835 ft | 450 kts | 265° |
| 2026-05-04 23:21 | 42.29485 | -72.88192 | 42833 ft | 450 kts | 265° |
| 2026-05-04 23:22 | 42.28998 | -72.96620 | 42829 ft | 450 kts | 263° |
| 2026-05-04 23:22 | 42.28260 | -73.04956 | 42823 ft | 449 kts | 263° |
| 2026-05-04 23:23 | 42.27542 | -73.13341 | 42819 ft | 449 kts | 263° |
| 2026-05-04 23:23 | 42.26801 | -73.21702 | 42820 ft | 448 kts | 263° |
| 2026-05-04 23:24 | 42.26065 | -73.30058 | 42818 ft | 448 kts | 263° |
| 2026-05-04 23:24 | 42.25316 | -73.38397 | 42816 ft | 447 kts | 263° |
| 2026-05-04 23:25 | 42.24569 | -73.46727 | 42810 ft | 447 kts | 263° |
| 2026-05-04 23:25 | 42.23811 | -73.55049 | 42811 ft | 446 kts | 263° |
| 2026-05-04 23:26 | 42.23050 | -73.63370 | 42804 ft | 447 kts | 263° |
| 2026-05-04 23:26 | 42.22287 | -73.71629 | 42805 ft | 447 kts | 263° |
| 2026-05-04 23:27 | 42.21513 | -73.79950 | 42806 ft | 447 kts | 263° |
| 2026-05-04 23:27 | 42.20731 | -73.88275 | 42808 ft | 447 kts | 263° |
| 2026-05-04 23:28 | 42.19940 | -73.96588 | 42807 ft | 447 kts | 263° |
| 2026-05-04 23:28 | 42.19155 | -74.04901 | 42818 ft | 447 kts | 263° |
| 2026-05-04 23:29 | 42.18353 | -74.13218 | 42818 ft | 447 kts | 263° |
| 2026-05-04 23:29 | 42.17550 | -74.21535 | 42824 ft | 448 kts | 263° |
| 2026-05-04 23:30 | 42.16737 | -74.29861 | 42835 ft | 448 kts | 262° |
| 2026-05-04 23:30 | 42.15920 | -74.38184 | 42833 ft | 448 kts | 262° |
| 2026-05-04 23:31 | 42.15095 | -74.46503 | 42838 ft | 447 kts | 262° |
| 2026-05-04 23:31 | 42.14272 | -74.54760 | 42844 ft | 447 kts | 263° |
| 2026-05-04 23:32 | 42.13439 | -74.63052 | 42844 ft | 446 kts | 262° |
| 2026-05-04 23:32 | 42.12598 | -74.71344 | 42847 ft | 447 kts | 262° |
| 2026-05-04 23:33 | 42.11753 | -74.79629 | 42844 ft | 446 kts | 262° |
| 2026-05-04 23:33 | 42.10901 | -74.87912 | 42847 ft | 447 kts | 262° |
| 2026-05-04 23:34 | 42.10045 | -74.96188 | 42841 ft | 446 kts | 262° |
| 2026-05-04 23:34 | 42.09182 | -75.04464 | 42840 ft | 446 kts | 262° |
| 2026-05-04 23:35 | 42.08320 | -75.12665 | 42829 ft | 439 kts | 263° |
| 2026-05-04 23:35 | 42.07459 | -75.20819 | 42833 ft | 440 kts | 263° |
| 2026-05-04 23:36 | 42.06474 | -75.28936 | 42825 ft | 440 kts | 257° |
| 2026-05-04 23:36 | 42.04258 | -75.36632 | 42826 ft | 444 kts | 244° |
| 2026-05-04 23:37 | 42.01263 | -75.43905 | 42821 ft | 444 kts | 244° |
| 2026-05-04 23:37 | 41.98294 | -75.51136 | 42820 ft | 444 kts | 244° |
| 2026-05-04 23:38 | 41.95290 | -75.58401 | 42818 ft | 444 kts | 244° |
| 2026-05-04 23:38 | 41.92294 | -75.65653 | 42814 ft | 444 kts | 244° |
| 2026-05-04 23:39 | 41.89288 | -75.72898 | 42807 ft | 444 kts | 244° |
| 2026-05-04 23:39 | 41.86281 | -75.80134 | 42800 ft | 444 kts | 243° |
| 2026-05-04 23:40 | 41.83266 | -75.87368 | 42799 ft | 444 kts | 244° |
| 2026-05-04 23:40 | 41.80248 | -75.94595 | 42791 ft | 444 kts | 243° |
| 2026-05-04 23:41 | 41.77227 | -76.01808 | 42792 ft | 444 kts | 243° |
| 2026-05-04 23:41 | 41.74205 | -76.09007 | 42787 ft | 443 kts | 243° |
| 2026-05-04 23:42 | 41.71182 | -76.16193 | 42787 ft | 443 kts | 243° |
| 2026-05-04 23:42 | 41.68153 | -76.23370 | 42787 ft | 443 kts | 243° |
| 2026-05-04 23:43 | 41.65121 | -76.30544 | 42787 ft | 443 kts | 243° |
| 2026-05-04 23:43 | 41.62079 | -76.37718 | 42783 ft | 443 kts | 243° |
| 2026-05-04 23:44 | 41.59042 | -76.44868 | 42780 ft | 443 kts | 243° |
| 2026-05-04 23:44 | 41.55997 | -76.52016 | 42783 ft | 443 kts | 243° |
| 2026-05-04 23:45 | 41.53462 | -76.57956 | 42782 ft | 443 kts | 243° |
| 2026-05-04 23:45 | 41.49913 | -76.66247 | 42778 ft | 443 kts | 243° |
| 2026-05-04 23:46 | 41.46859 | -76.73367 | 42777 ft | 442 kts | 243° |
| 2026-05-04 23:46 | 41.44309 | -76.79297 | 42778 ft | 443 kts | 243° |
| 2026-05-04 23:47 | 41.40724 | -76.87613 | 42780 ft | 443 kts | 243° |
| 2026-05-04 23:47 | 41.38166 | -76.93532 | 42773 ft | 443 kts | 243° |
| 2026-05-04 23:48 | 41.35087 | -77.00645 | 42776 ft | 443 kts | 243° |
| 2026-05-04 23:48 | 41.32003 | -77.07749 | 42781 ft | 443 kts | 243° |
| 2026-05-04 23:49 | 41.28918 | -77.14841 | 42780 ft | 443 kts | 243° |
| 2026-05-04 23:49 | 41.25828 | -77.21926 | 42778 ft | 443 kts | 243° |
| 2026-05-04 23:50 | 41.22735 | -77.29004 | 42780 ft | 443 kts | 243° |
| 2026-05-04 23:50 | 41.19637 | -77.36073 | 42779 ft | 443 kts | 243° |
| 2026-05-04 23:51 | 41.16557 | -77.43088 | 42784 ft | 442 kts | 243° |
| 2026-05-04 23:51 | 41.13455 | -77.50136 | 42791 ft | 442 kts | 243° |
| 2026-05-04 23:52 | 41.10349 | -77.57173 | 42794 ft | 442 kts | 242° |
| 2026-05-04 23:52 | 41.07240 | -77.64204 | 42803 ft | 442 kts | 242° |
| 2026-05-04 23:53 | 41.04128 | -77.71228 | 42807 ft | 443 kts | 242° |
| 2026-05-04 23:53 | 41.01002 | -77.78260 | 42819 ft | 443 kts | 242° |
| 2026-05-04 23:54 | 40.97872 | -77.85294 | 42817 ft | 443 kts | 242° |
| 2026-05-04 23:54 | 40.94792 | -77.92362 | 42813 ft | 442 kts | 246° |
| 2026-05-04 23:55 | 40.92809 | -78.00006 | 42815 ft | 439 kts | 259° |
| 2026-05-04 23:55 | 40.92301 | -78.07961 | 42818 ft | 438 kts | 272° |
| 2026-05-04 23:56 | 40.92560 | -78.11969 | 42821 ft | 438 kts | 276° |
| 2026-05-04 23:56 | 40.93130 | -78.19995 | 42831 ft | 438 kts | 275° |
| 2026-05-04 23:57 | 40.93707 | -78.28030 | 42836 ft | 438 kts | 275° |
| 2026-05-04 23:57 | 40.94273 | -78.36056 | 42837 ft | 439 kts | 275° |
| 2026-05-04 23:58 | 40.94837 | -78.44100 | 42841 ft | 439 kts | 275° |
| 2026-05-04 23:58 | 40.95392 | -78.52133 | 42394 ft | 437 kts | 275° |
| 2026-05-04 23:58 | 40.95666 | -78.56098 | 41821 ft | 428 kts | 275° |
| 2026-05-04 23:59 | 40.95931 | -78.59978 | 41259 ft | 419 kts | 275° |
| 2026-05-04 23:59 | 40.96191 | -78.63786 | 40716 ft | 410 kts | 275° |
| 2026-05-04 23:59 | 40.96442 | -78.67505 | 40175 ft | 402 kts | 275° |
| 2026-05-04 23:59 | 40.96687 | -78.71150 | 39648 ft | 395 kts | 275° |
| 2026-05-05 00:00 | 40.96931 | -78.74758 | 39126 ft | 392 kts | 275° |
| 2026-05-05 00:00 | 40.97089 | -78.77129 | 38787 ft | 391 kts | 275° |
| 2026-05-05 00:00 | 40.97408 | -78.81927 | 38047 ft | 392 kts | 275° |
| 2026-05-05 00:00 | 40.97646 | -78.85532 | 37530 ft | 397 kts | 276° |
| 2026-05-05 00:01 | 40.97885 | -78.89155 | 37007 ft | 390 kts | 276° |
| 2026-05-05 00:01 | 40.98116 | -78.92687 | 36500 ft | 380 kts | 276° |
| 2026-05-05 00:01 | 40.98340 | -78.96138 | 36005 ft | 374 kts | 276° |
| 2026-05-05 00:01 | 40.98561 | -78.99542 | 35514 ft | 370 kts | 276° |
| 2026-05-05 00:02 | 40.98782 | -79.02928 | 35032 ft | 369 kts | 276° |
| 2026-05-05 00:02 | 40.98999 | -79.06308 | 34540 ft | 369 kts | 276° |
| 2026-05-05 00:02 | 40.99216 | -79.09694 | 34059 ft | 369 kts | 276° |
| 2026-05-05 00:02 | 40.99431 | -79.13080 | 33544 ft | 369 kts | 276° |
| 2026-05-05 00:03 | 40.99645 | -79.16451 | 33052 ft | 367 kts | 276° |
| 2026-05-05 00:03 | 40.99857 | -79.19803 | 32571 ft | 364 kts | 276° |
| 2026-05-05 00:03 | 41.00066 | -79.23143 | 32095 ft | 363 kts | 276° |
| 2026-05-05 00:03 | 41.00274 | -79.26460 | 31613 ft | 361 kts | 276° |
| 2026-05-05 00:04 | 41.00476 | -79.29716 | 31145 ft | 359 kts | 275° |
| 2026-05-05 00:04 | 41.00679 | -79.32966 | 30674 ft | 347 kts | 275° |
| 2026-05-05 00:04 | 41.00874 | -79.36135 | 30219 ft | 348 kts | 275° |
| 2026-05-05 00:04 | 41.01074 | -79.39394 | 29730 ft | 350 kts | 275° |
| 2026-05-05 00:05 | 41.01269 | -79.42595 | 29256 ft | 347 kts | 275° |
| 2026-05-05 00:05 | 41.01463 | -79.45771 | 28801 ft | 345 kts | 275° |
| 2026-05-05 00:05 | 41.01652 | -79.48883 | 28343 ft | 343 kts | 275° |
| 2026-05-05 00:05 | 41.01840 | -79.52016 | 27896 ft | 340 kts | 275° |
| 2026-05-05 00:06 | 41.02026 | -79.55125 | 27449 ft | 338 kts | 275° |
| 2026-05-05 00:06 | 41.02213 | -79.58221 | 27005 ft | 335 kts | 275° |
| 2026-05-05 00:06 | 41.02395 | -79.61293 | 26565 ft | 333 kts | 275° |
| 2026-05-05 00:06 | 41.02575 | -79.64340 | 26130 ft | 331 kts | 274° |
| 2026-05-05 00:07 | 41.02754 | -79.67370 | 25693 ft | 329 kts | 274° |
| 2026-05-05 00:07 | 41.02932 | -79.70420 | 25261 ft | 334 kts | 274° |
| 2026-05-05 00:07 | 41.03112 | -79.73483 | 24825 ft | 332 kts | 274° |
| 2026-05-05 00:07 | 41.03288 | -79.76508 | 24387 ft | 326 kts | 274° |
| 2026-05-05 00:08 | 41.03459 | -79.79479 | 23960 ft | 321 kts | 274° |
| 2026-05-05 00:08 | 41.03628 | -79.82415 | 23541 ft | 318 kts | 274° |
| 2026-05-05 00:08 | 41.03796 | -79.85322 | 23089 ft | 315 kts | 274° |
| 2026-05-05 00:08 | 41.03960 | -79.88197 | 22664 ft | 311 kts | 274° |
| 2026-05-05 00:09 | 41.04121 | -79.91049 | 22255 ft | 309 kts | 274° |
| 2026-05-05 00:09 | 41.04283 | -79.93875 | 21851 ft | 307 kts | 274° |
| 2026-05-05 00:09 | 41.04440 | -79.96683 | 21462 ft | 302 kts | 274° |
| 2026-05-05 00:09 | 41.04595 | -79.99440 | 20799 ft | 302 kts | 274° |
| 2026-05-05 00:10 | 41.04751 | -80.02224 | 19868 ft | 303 kts | 274° |
| 2026-05-05 00:10 | 41.04904 | -80.04983 | 19224 ft | 292 kts | 273° |
| 2026-05-05 00:10 | 41.05051 | -80.07611 | 18868 ft | 283 kts | 273° |
| 2026-05-05 00:10 | 41.05194 | -80.10220 | 18494 ft | 285 kts | 273° |
| 2026-05-05 00:11 | 41.05339 | -80.12842 | 18120 ft | 285 kts | 273° |
| 2026-05-05 00:11 | 41.05478 | -80.15450 | 17713 ft | 283 kts | 272° |
| 2026-05-05 00:11 | 41.05536 | -80.18037 | 17275 ft | 285 kts | 270° |
| 2026-05-05 00:11 | 41.05585 | -80.20648 | 16840 ft | 280 kts | 271° |
| 2026-05-05 00:12 | 41.05645 | -80.23209 | 16419 ft | 276 kts | 271° |
| 2026-05-05 00:12 | 41.05705 | -80.25747 | 15867 ft | 272 kts | 271° |
| 2026-05-05 00:12 | 41.05760 | -80.28215 | 15426 ft | 266 kts | 271° |
| 2026-05-05 00:12 | 41.05811 | -80.30661 | 14994 ft | 265 kts | 271° |
| 2026-05-05 00:13 | 41.05864 | -80.33095 | 14561 ft | 263 kts | 271° |
| 2026-05-05 00:13 | 41.05916 | -80.35511 | 14135 ft | 261 kts | 271° |
| 2026-05-05 00:13 | 41.05964 | -80.37895 | 13864 ft | 255 kts | 271° |
| 2026-05-05 00:13 | 41.06015 | -80.40266 | 13484 ft | 259 kts | 271° |
| 2026-05-05 00:14 | 41.06064 | -80.42643 | 13060 ft | 256 kts | 271° |
| 2026-05-05 00:14 | 41.06112 | -80.44988 | 12639 ft | 253 kts | 271° |
| 2026-05-05 00:14 | 41.06158 | -80.47311 | 12234 ft | 251 kts | 271° |
| 2026-05-05 00:14 | 41.06205 | -80.49606 | 11830 ft | 248 kts | 271° |
| 2026-05-05 00:15 | 41.06250 | -80.51877 | 11428 ft | 246 kts | 271° |
| 2026-05-05 00:15 | 41.06294 | -80.54133 | 11032 ft | 244 kts | 271° |
| 2026-05-05 00:15 | 41.06337 | -80.56368 | 10639 ft | 241 kts | 270° |
| 2026-05-05 00:15 | 41.06380 | -80.58574 | 10254 ft | 239 kts | 270° |
| 2026-05-05 00:16 | 41.06422 | -80.60735 | 9873 ft | 236 kts | 270° |
| 2026-05-05 00:16 | 41.06461 | -80.62898 | 9477 ft | 233 kts | 270° |
| 2026-05-05 00:16 | 41.06502 | -80.65040 | 9097 ft | 232 kts | 270° |
| 2026-05-05 00:16 | 41.06543 | -80.67178 | 8712 ft | 233 kts | 270° |
| 2026-05-05 00:17 | 41.06580 | -80.69320 | 8334 ft | 232 kts | 269° |
| 2026-05-05 00:17 | 41.06620 | -80.71451 | 7958 ft | 230 kts | 269° |
| 2026-05-05 00:17 | 41.06658 | -80.73570 | 7584 ft | 230 kts | 269° |
| 2026-05-05 00:17 | 41.06705 | -80.75682 | 7218 ft | 230 kts | 270° |
| 2026-05-05 00:18 | 41.06891 | -80.77786 | 6876 ft | 230 kts | 275° |
| 2026-05-05 00:18 | 41.07126 | -80.79908 | 6546 ft | 230 kts | 274° |
| 2026-05-05 00:18 | 41.07322 | -80.81964 | 6204 ft | 221 kts | 273° |
| 2026-05-05 00:18 | 41.07504 | -80.83983 | 5714 ft | 221 kts | 272° |
| 2026-05-05 00:19 | 41.07689 | -80.85997 | 5215 ft | 220 kts | 272° |
| 2026-05-05 00:19 | 41.07873 | -80.88011 | 4717 ft | 220 kts | 271° |
| 2026-05-05 00:19 | 41.08058 | -80.89992 | 4205 ft | 213 kts | 271° |
| 2026-05-05 00:19 | 41.08234 | -80.91883 | 3975 ft | 201 kts | 271° |
| 2026-05-05 00:20 | 41.08401 | -80.93739 | 3713 ft | 201 kts | 270° |
| 2026-05-05 00:20 | 41.08566 | -80.95526 | 3482 ft | 198 kts | 270° |
| 2026-05-05 00:20 | 41.08726 | -80.97318 | 3251 ft | 199 kts | 270° |
| 2026-05-05 00:20 | 41.08896 | -80.99153 | 3025 ft | 202 kts | 270° |
| 2026-05-05 00:21 | 41.09064 | -81.00993 | 3002 ft | 203 kts | 270° |
| 2026-05-05 00:21 | 41.09229 | -81.02841 | 3002 ft | 203 kts | 270° |
| 2026-05-05 00:21 | 41.09399 | -81.04699 | 2996 ft | 203 kts | 270° |
| 2026-05-05 00:21 | 41.09565 | -81.06557 | 2993 ft | 203 kts | 270° |
| 2026-05-05 00:22 | 41.09734 | -81.08409 | 2993 ft | 203 kts | 270° |
| 2026-05-05 00:22 | 41.09788 | -81.10241 | 2976 ft | 196 kts | 255° |
| 2026-05-05 00:22 | 41.09342 | -81.11900 | 2973 ft | 181 kts | 244° |
| 2026-05-05 00:22 | 41.08943 | -81.13263 | 2991 ft | 138 kts | 246° |
| 2026-05-05 00:23 | 41.08643 | -81.14426 | 2983 ft | 131 kts | 246° |
| 2026-05-05 00:23 | 41.08369 | -81.15561 | 2983 ft | 127 kts | 246° |
| 2026-05-05 00:23 | 41.08111 | -81.16663 | 2977 ft | 124 kts | 247° |
| 2026-05-05 00:23 | 41.07859 | -81.17751 | 2983 ft | 122 kts | 247° |
| 2026-05-05 00:24 | 41.07610 | -81.18838 | 2984 ft | 124 kts | 247° |
| 2026-05-05 00:24 | 41.07360 | -81.19922 | 2985 ft | 123 kts | 247° |
| 2026-05-05 00:24 | 41.07110 | -81.21010 | 2981 ft | 124 kts | 248° |
| 2026-05-05 00:24 | 41.06813 | -81.22082 | 2987 ft | 123 kts | 238° |
| 2026-05-05 00:25 | 41.06268 | -81.22949 | 2983 ft | 122 kts | 225° |
| 2026-05-05 00:25 | 41.05710 | -81.23799 | 2982 ft | 122 kts | 228° |
| 2026-05-05 00:25 | 41.05130 | -81.24617 | 2979 ft | 122 kts | 225° |
| 2026-05-05 00:25 | 41.04561 | -81.25453 | 2970 ft | 122 kts | 227° |
| 2026-05-05 00:26 | 41.03984 | -81.26282 | 2971 ft | 122 kts | 226° |
| 2026-05-05 00:26 | 41.03409 | -81.27112 | 2974 ft | 123 kts | 228° |
| 2026-05-05 00:26 | 41.02831 | -81.27955 | 2969 ft | 124 kts | 226° |
| 2026-05-05 00:26 | 41.02244 | -81.28793 | 2975 ft | 124 kts | 227° |
| 2026-05-05 00:27 | 41.01679 | -81.29619 | 2970 ft | 120 kts | 226° |
| 2026-05-05 00:27 | 41.01128 | -81.30408 | 2964 ft | 116 kts | 228° |
| 2026-05-05 00:27 | 41.00586 | -81.31199 | 2965 ft | 115 kts | 227° |
| 2026-05-05 00:27 | 41.00418 | -81.31432 | 2964 ft | 115 kts | 227° |
| 2026-05-05 00:28 | 40.99884 | -81.32219 | 2970 ft | 118 kts | 228° |
| 2026-05-05 00:28 | 40.99320 | -81.33014 | 2971 ft | 117 kts | 224° |
| 2026-05-05 00:28 | 40.98792 | -81.33794 | 2996 ft | 115 kts | 227° |
| 2026-05-05 00:29 | 40.98253 | -81.34552 | 2995 ft | 114 kts | 225° |
| 2026-05-05 00:29 | 40.97716 | -81.35350 | 2896 ft | 118 kts | 227° |
| 2026-05-05 00:29 | 40.97147 | -81.36150 | 2740 ft | 120 kts | 225° |
| 2026-05-05 00:29 | 40.96585 | -81.36979 | 2576 ft | 120 kts | 226° |
| 2026-05-05 00:30 | 40.96005 | -81.37803 | 2417 ft | 123 kts | 225° |
| 2026-05-05 00:30 | 40.95436 | -81.38630 | 2259 ft | 123 kts | 227° |
| 2026-05-05 00:30 | 40.94829 | -81.39503 | 2085 ft | 133 kts | 224° |
| 2026-05-05 00:30 | 40.94257 | -81.40334 | 1913 ft | 128 kts | 226° |
| 2026-05-05 00:31 | 40.93650 | -81.41201 | 1741 ft | 124 kts | 224° |
| 2026-05-05 00:31 | 40.93053 | -81.42064 | 1575 ft | 131 kts | 226° |
| 2026-05-05 00:31 | 40.92435 | -81.42967 | 1385 ft | 131 kts | 224° |
| 2026-05-05 00:31 | 40.91860 | -81.43790 | 1243 ft | 110 kts | 228° |
| 2026-05-05 00:32 | 40.91460 | -81.44356 | 1214 ft | 56 kts | 228° |